createdAt,value
2018-11-27T00:00:09.244Z,2.51
2018-11-27T00:01:09.233Z,2.65
2018-11-27T00:02:09.230Z,2.6
2018-11-27T00:03:08.747Z,2.54
2018-11-27T00:04:09.222Z,2.68
2018-11-27T00:05:09.218Z,2.61
2018-11-27T00:06:09.267Z,2.6
2018-11-27T00:07:09.212Z,2.6
2018-11-27T00:08:08.964Z,2.62
2018-11-27T00:09:09.482Z,2.65
2018-11-27T00:10:09.205Z,2.61
2018-11-27T00:11:08.708Z,2.67
2018-11-27T00:12:09.194Z,2.67
2018-11-27T00:13:09.209Z,2.69
2018-11-27T00:14:09.183Z,2.67
2018-11-27T00:15:09.181Z,2.64
2018-11-27T00:16:09.178Z,2.71
2018-11-27T00:17:08.927Z,2.74
2018-11-27T00:18:08.930Z,2.74
2018-11-27T00:19:09.167Z,2.82
2018-11-27T00:20:09.158Z,2.8
2018-11-27T00:21:08.965Z,2.83
2018-11-27T00:22:09.155Z,2.77
2018-11-27T00:23:09.150Z,2.83
2018-11-27T00:24:08.895Z,2.72
2018-11-27T00:25:08.893Z,2.86
2018-11-27T00:26:09.135Z,2.83
2018-11-27T00:27:09.135Z,2.86
2018-11-27T00:28:08.895Z,2.83
2018-11-27T00:29:09.124Z,2.85
2018-11-27T00:30:08.885Z,2.75
2018-11-27T00:31:09.114Z,2.77
2018-11-27T00:32:09.117Z,2.79
2018-11-27T00:33:09.110Z,2.82
2018-11-27T00:34:08.862Z,2.75
2018-11-27T00:35:09.104Z,2.77
2018-11-27T00:36:08.912Z,2.71
2018-11-27T00:37:09.096Z,2.71
2018-11-27T00:38:09.092Z,2.71
2018-11-27T00:39:09.087Z,2.69
2018-11-27T00:40:08.839Z,2.85
2018-11-27T00:41:09.131Z,2.69
2018-11-27T00:42:09.073Z,2.86
2018-11-27T00:43:09.074Z,2.69
2018-11-27T00:44:09.069Z,2.71
2018-11-27T00:45:09.084Z,2.75
2018-11-27T00:46:09.064Z,2.68
2018-11-27T00:47:08.816Z,2.75
2018-11-27T00:48:09.059Z,2.74
2018-11-27T00:49:09.044Z,2.72
2018-11-27T00:50:08.802Z,2.77
2018-11-27T00:51:09.095Z,2.85
2018-11-27T00:52:09.024Z,2.85
2018-11-27T00:53:09.029Z,2.75
2018-11-27T00:54:09.037Z,2.74
2018-11-27T00:55:09.018Z,2.79
2018-11-27T00:56:09.007Z,2.75
2018-11-27T00:57:08.768Z,2.82
2018-11-27T00:58:09.006Z,2.8
2018-11-27T00:59:08.996Z,2.82
2018-11-27T01:00:09.010Z,2.87
2018-11-27T01:01:08.992Z,2.8
2018-11-27T01:02:09.033Z,2.82
2018-11-27T01:03:08.989Z,2.82
2018-11-27T01:04:08.983Z,2.79
2018-11-27T01:05:08.983Z,2.86
2018-11-27T01:06:09.128Z,2.69
2018-11-27T01:07:08.737Z,2.85
2018-11-27T01:08:08.979Z,2.72
2018-11-27T01:09:08.974Z,2.74
2018-11-27T01:10:08.721Z,2.86
2018-11-27T01:11:08.968Z,2.69
2018-11-27T01:12:08.961Z,2.77
2018-11-27T01:13:08.708Z,2.69
2018-11-27T01:14:08.709Z,2.74
2018-11-27T01:15:08.944Z,2.69
2018-11-27T01:16:08.943Z,2.69
2018-11-27T01:17:08.966Z,2.8
2018-11-27T01:18:08.939Z,2.65
2018-11-27T01:19:08.937Z,2.71
2018-11-27T01:20:08.933Z,2.68
2018-11-27T01:21:08.727Z,2.72
2018-11-27T01:22:08.918Z,2.69
2018-11-27T01:23:08.912Z,2.71
2018-11-27T01:24:08.910Z,2.72
2018-11-27T01:25:08.662Z,2.74
2018-11-27T01:26:08.656Z,2.74
2018-11-27T01:27:08.902Z,2.77
2018-11-27T01:28:08.923Z,2.68
2018-11-27T01:29:08.897Z,2.64
2018-11-27T01:30:08.886Z,2.77
2018-11-27T01:31:08.941Z,2.64
2018-11-27T01:32:08.885Z,2.69
2018-11-27T01:33:08.876Z,2.85
2018-11-27T01:34:08.871Z,2.77
2018-11-27T01:35:08.874Z,2.83
2018-11-27T01:36:08.899Z,2.79
2018-11-27T01:37:08.852Z,2.82
2018-11-27T01:38:08.846Z,2.85
2018-11-27T01:39:08.599Z,2.86
2018-11-27T01:40:08.832Z,2.82
2018-11-27T01:41:08.834Z,2.77
2018-11-27T01:42:08.836Z,2.82
2018-11-27T01:43:08.827Z,2.87
2018-11-27T01:44:08.825Z,2.82
2018-11-27T01:45:08.820Z,2.89
2018-11-27T01:46:08.582Z,2.86
2018-11-27T01:47:08.819Z,2.85
2018-11-27T01:48:08.821Z,2.82
2018-11-27T01:49:08.835Z,2.85
2018-11-27T01:50:08.814Z,2.79
2018-11-27T01:51:08.614Z,2.82
2018-11-27T01:52:08.578Z,2.83
2018-11-27T01:53:08.795Z,2.82
2018-11-27T01:54:08.550Z,2.79
2018-11-27T01:55:08.790Z,2.83
2018-11-27T01:56:08.840Z,2.83
2018-11-27T01:57:08.783Z,2.74
2018-11-27T01:58:08.774Z,2.8
2018-11-27T01:59:08.775Z,2.83
2018-11-27T02:00:08.765Z,2.87
2018-11-27T02:01:08.520Z,2.83
2018-11-27T02:02:08.764Z,2.86
2018-11-27T02:03:08.755Z,2.83
2018-11-27T02:04:08.763Z,2.87
2018-11-27T02:05:08.751Z,2.74
2018-11-27T02:06:08.496Z,2.86
2018-11-27T02:07:08.747Z,2.71
2018-11-27T02:08:08.737Z,2.69
2018-11-27T02:09:08.935Z,2.74
2018-11-27T02:10:08.731Z,2.68
2018-11-27T02:11:08.776Z,2.69
2018-11-27T02:12:08.727Z,2.71
2018-11-27T02:13:08.721Z,2.71
2018-11-27T02:14:08.720Z,2.64
2018-11-27T02:15:08.470Z,2.67
2018-11-27T02:16:08.707Z,2.69
2018-11-27T02:17:08.707Z,2.75
2018-11-27T02:18:08.705Z,2.75
2018-11-27T02:19:08.703Z,2.69
2018-11-27T02:20:08.699Z,2.67
2018-11-27T02:21:08.744Z,2.67
2018-11-27T02:22:08.443Z,2.68
2018-11-27T02:23:08.685Z,2.72
2018-11-27T02:24:08.675Z,2.77
2018-11-27T02:25:08.677Z,2.71
2018-11-27T02:26:08.669Z,2.77
2018-11-27T02:27:08.668Z,2.71
2018-11-27T02:28:08.662Z,2.85
2018-11-27T02:29:08.660Z,2.79
2018-11-27T02:30:08.659Z,2.8
2018-11-27T02:31:08.652Z,2.87
2018-11-27T02:32:08.646Z,2.87
2018-11-27T02:33:08.662Z,2.86
2018-11-27T02:34:08.638Z,2.82
2018-11-27T02:35:08.636Z,2.86
2018-11-27T02:36:08.489Z,2.85
2018-11-27T02:37:08.635Z,2.85
2018-11-27T02:38:08.627Z,2.89
2018-11-27T02:39:08.378Z,2.86
2018-11-27T02:40:08.625Z,2.87
2018-11-27T02:41:08.666Z,2.85
2018-11-27T02:42:08.612Z,2.89
2018-11-27T02:43:08.612Z,2.92
2018-11-27T02:44:08.606Z,2.92
2018-11-27T02:45:08.593Z,2.92
2018-11-27T02:46:09.595Z,2.87
2018-11-27T02:47:08.589Z,2.89
2018-11-27T02:48:08.592Z,2.89
2018-11-27T02:49:08.589Z,2.92
2018-11-27T02:50:08.587Z,2.95
2018-11-27T02:51:08.580Z,2.92
2018-11-27T02:52:08.580Z,2.95
2018-11-27T02:53:08.587Z,2.9
2018-11-27T02:54:08.316Z,2.97
2018-11-27T02:55:08.557Z,2.89
2018-11-27T02:56:08.610Z,2.8
2018-11-27T02:57:08.557Z,2.8
2018-11-27T02:58:08.554Z,2.89
2018-11-27T02:59:08.542Z,2.87
2018-11-27T03:00:08.537Z,2.8
2018-11-27T03:01:08.333Z,2.89
2018-11-27T03:02:08.527Z,2.83
2018-11-27T03:03:08.526Z,2.83
2018-11-27T03:04:08.520Z,2.86
2018-11-27T03:05:08.271Z,2.74
2018-11-27T03:06:08.535Z,2.72
2018-11-27T03:07:08.513Z,2.82
2018-11-27T03:08:08.521Z,2.86
2018-11-27T03:09:08.517Z,2.86
2018-11-27T03:10:08.505Z,2.85
2018-11-27T03:11:08.252Z,2.85
2018-11-27T03:12:08.253Z,2.89
2018-11-27T03:13:08.254Z,2.8
2018-11-27T03:14:08.489Z,2.87
2018-11-27T03:15:08.485Z,2.87
2018-11-27T03:16:08.525Z,2.85
2018-11-27T03:17:08.281Z,2.85
2018-11-27T03:18:08.482Z,2.82
2018-11-27T03:19:08.223Z,2.75
2018-11-27T03:20:08.470Z,2.75
2018-11-27T03:21:08.493Z,2.8
2018-11-27T03:22:08.460Z,2.69
2018-11-27T03:23:08.467Z,2.8
2018-11-27T03:24:08.453Z,2.71
2018-11-27T03:25:08.459Z,2.74
2018-11-27T03:26:08.209Z,2.69
2018-11-27T03:27:08.441Z,2.72
2018-11-27T03:28:08.434Z,2.65
2018-11-27T03:29:08.439Z,2.65
2018-11-27T03:30:08.430Z,2.65
2018-11-27T03:31:08.482Z,2.64
2018-11-27T03:32:08.426Z,2.6
2018-11-27T03:33:08.428Z,2.68
2018-11-27T03:34:08.415Z,2.65
2018-11-27T03:35:08.406Z,2.62
2018-11-27T03:36:08.163Z,2.61
2018-11-27T03:37:08.425Z,2.54
2018-11-27T03:38:08.407Z,2.54
2018-11-27T03:39:08.394Z,2.57
2018-11-27T03:40:08.390Z,2.54
2018-11-27T03:41:08.391Z,2.57
2018-11-27T03:42:08.392Z,2.5
2018-11-27T03:43:08.381Z,2.53
2018-11-27T03:44:08.128Z,2.53
2018-11-27T03:45:08.375Z,2.51
2018-11-27T03:46:08.425Z,2.54
2018-11-27T03:47:08.358Z,2.49
2018-11-27T03:48:08.110Z,2.42
2018-11-27T03:49:08.347Z,2.47
2018-11-27T03:50:08.107Z,2.44
2018-11-27T03:51:08.341Z,2.49
2018-11-27T03:52:08.336Z,2.44
2018-11-27T03:53:08.088Z,2.46
2018-11-27T03:54:08.326Z,2.51
2018-11-27T03:55:08.085Z,2.53
2018-11-27T03:56:08.374Z,2.57
2018-11-27T03:57:08.330Z,2.51
2018-11-27T03:58:08.315Z,2.54
2018-11-27T03:59:08.073Z,2.56
2018-11-27T04:00:08.075Z,2.56
2018-11-27T04:01:08.300Z,2.57
2018-11-27T04:02:08.301Z,2.64
2018-11-27T04:03:08.298Z,2.65
2018-11-27T04:04:12.248Z,2.6
2018-11-27T04:05:08.292Z,2.67
2018-11-27T04:06:08.286Z,2.67
2018-11-27T04:07:08.036Z,2.65
2018-11-27T04:08:08.294Z,2.64
2018-11-27T04:09:08.270Z,2.68
2018-11-27T04:10:08.266Z,2.68
2018-11-27T04:11:08.344Z,2.67
2018-11-27T04:12:08.253Z,2.69
2018-11-27T04:13:08.237Z,2.72
2018-11-27T04:14:08.230Z,2.77
2018-11-27T04:15:08.232Z,2.74
2018-11-27T04:16:08.384Z,2.75
2018-11-27T04:17:08.249Z,2.69
2018-11-27T04:18:08.020Z,2.83
2018-11-27T04:19:07.759Z,2.82
2018-11-27T04:20:08.260Z,2.86
2018-11-27T04:21:08.237Z,2.72
2018-11-27T04:22:08.233Z,2.79
2018-11-27T04:23:08.228Z,2.8
2018-11-27T04:24:08.213Z,2.82
2018-11-27T04:25:08.212Z,2.86
2018-11-27T04:26:08.304Z,2.75
2018-11-27T04:27:08.218Z,2.82
2018-11-27T04:28:08.204Z,2.77
2018-11-27T04:29:08.216Z,2.74
2018-11-27T04:30:08.191Z,2.71
2018-11-27T04:31:08.188Z,2.83
2018-11-27T04:32:08.180Z,2.74
2018-11-27T04:33:08.190Z,2.83
2018-11-27T04:34:07.955Z,2.86
2018-11-27T04:35:08.171Z,2.77
2018-11-27T04:36:08.167Z,2.74
2018-11-27T04:37:08.162Z,2.74
2018-11-27T04:38:08.166Z,2.75
2018-11-27T04:39:08.161Z,2.74
2018-11-27T04:40:08.172Z,2.71
2018-11-27T04:41:08.250Z,2.82
2018-11-27T04:42:08.157Z,2.72
2018-11-27T04:43:08.140Z,2.69
2018-11-27T04:44:08.136Z,2.69
2018-11-27T04:45:08.126Z,2.69
2018-11-27T04:46:08.131Z,2.69
2018-11-27T04:47:07.874Z,2.62
2018-11-27T04:48:08.130Z,2.62
2018-11-27T04:49:08.121Z,2.57
2018-11-27T04:50:08.131Z,2.65
2018-11-27T04:51:08.107Z,2.68
2018-11-27T04:52:08.118Z,2.69
2018-11-27T04:53:07.856Z,2.57
2018-11-27T04:54:08.102Z,2.68
2018-11-27T04:55:08.087Z,2.56
2018-11-27T04:56:07.890Z,2.6
2018-11-27T04:57:08.079Z,2.6
2018-11-27T04:58:08.079Z,2.65
2018-11-27T04:59:08.080Z,2.74
2018-11-27T05:00:07.823Z,2.65
2018-11-27T05:01:08.083Z,2.69
2018-11-27T05:02:08.058Z,2.72
2018-11-27T05:03:08.062Z,2.77
2018-11-27T05:04:08.064Z,2.74
2018-11-27T05:05:08.050Z,2.75
2018-11-27T05:06:08.050Z,2.67
2018-11-27T05:07:07.798Z,2.72
2018-11-27T05:08:08.041Z,2.71
2018-11-27T05:09:08.041Z,2.67
2018-11-27T05:10:08.034Z,2.61
2018-11-27T05:11:08.081Z,2.67
2018-11-27T05:12:07.779Z,2.67
2018-11-27T05:13:08.021Z,2.61
2018-11-27T05:14:08.021Z,2.72
2018-11-27T05:15:08.075Z,2.69
2018-11-27T05:16:08.012Z,2.71
2018-11-27T05:17:08.007Z,2.69
2018-11-27T05:18:07.997Z,2.69
2018-11-27T05:19:07.997Z,2.69
2018-11-27T05:20:07.990Z,2.65
2018-11-27T05:21:07.990Z,2.71
2018-11-27T05:22:07.987Z,2.65
2018-11-27T05:23:07.985Z,2.79
2018-11-27T05:24:07.978Z,2.71
2018-11-27T05:25:07.972Z,2.74
2018-11-27T05:26:08.026Z,2.72
2018-11-27T05:27:07.969Z,2.74
2018-11-27T05:28:07.721Z,2.74
2018-11-27T05:29:07.713Z,2.87
2018-11-27T05:30:07.949Z,2.8
2018-11-27T05:31:07.952Z,2.82
2018-11-27T05:32:07.947Z,2.8
2018-11-27T05:33:07.949Z,2.74
2018-11-27T05:34:07.693Z,2.9
2018-11-27T05:35:07.934Z,2.85
2018-11-27T05:36:07.992Z,2.86
2018-11-27T05:37:07.926Z,2.85
2018-11-27T05:38:07.922Z,2.79
2018-11-27T05:39:07.912Z,2.86
2018-11-27T05:40:07.911Z,2.83
2018-11-27T05:41:07.911Z,2.86
2018-11-27T05:42:07.907Z,2.83
2018-11-27T05:43:07.905Z,2.98
2018-11-27T05:44:07.920Z,2.9
2018-11-27T05:45:07.894Z,2.89
2018-11-27T05:46:07.922Z,2.87
2018-11-27T05:47:07.879Z,2.97
2018-11-27T05:48:07.642Z,2.97
2018-11-27T05:49:07.876Z,2.9
2018-11-27T05:50:07.886Z,2.93
2018-11-27T05:51:07.931Z,2.87
2018-11-27T05:52:09.035Z,2.8
2018-11-27T05:53:07.863Z,2.87
2018-11-27T05:54:07.864Z,2.85
2018-11-27T05:55:07.853Z,2.86
2018-11-27T05:56:07.901Z,2.79
2018-11-27T05:57:07.855Z,2.86
2018-11-27T05:58:07.853Z,2.83
2018-11-27T05:59:07.838Z,2.75
2018-11-27T06:00:07.848Z,2.74
2018-11-27T06:01:07.593Z,2.8
2018-11-27T06:02:07.591Z,2.9
2018-11-27T06:03:07.828Z,2.85
2018-11-27T06:04:07.830Z,2.85
2018-11-27T06:05:07.830Z,2.85
2018-11-27T06:06:07.818Z,2.9
2018-11-27T06:07:07.812Z,2.82
2018-11-27T06:08:07.818Z,2.83
2018-11-27T06:09:07.807Z,2.83
2018-11-27T06:10:07.812Z,2.86
2018-11-27T06:11:07.850Z,2.85
2018-11-27T06:12:07.795Z,2.89
2018-11-27T06:13:07.790Z,2.95
2018-11-27T06:14:07.787Z,2.83
2018-11-27T06:15:07.786Z,2.83
2018-11-27T06:16:07.795Z,2.8
2018-11-27T06:17:07.766Z,2.86
2018-11-27T06:18:07.565Z,2.85
2018-11-27T06:19:07.528Z,2.79
2018-11-27T06:20:07.513Z,2.71
2018-11-27T06:21:07.755Z,2.79
2018-11-27T06:22:07.752Z,2.75
2018-11-27T06:23:07.743Z,2.71
2018-11-27T06:24:07.750Z,2.87
2018-11-27T06:25:07.748Z,2.82
2018-11-27T06:26:07.553Z,2.77
2018-11-27T06:27:07.738Z,2.79
2018-11-27T06:28:07.727Z,2.71
2018-11-27T06:29:07.737Z,2.79
2018-11-27T06:30:07.478Z,2.77
2018-11-27T06:31:07.712Z,2.86
2018-11-27T06:32:07.719Z,2.83
2018-11-27T06:33:07.714Z,2.75
2018-11-27T06:34:07.705Z,2.72
2018-11-27T06:35:07.513Z,2.75
2018-11-27T06:36:07.704Z,2.77
2018-11-27T06:37:07.700Z,2.87
2018-11-27T06:38:07.707Z,2.82
2018-11-27T06:39:07.442Z,2.86
2018-11-27T06:40:07.673Z,2.83
2018-11-27T06:41:07.722Z,2.86
2018-11-27T06:42:07.678Z,2.87
2018-11-27T06:43:07.481Z,2.77
2018-11-27T06:44:07.667Z,2.83
2018-11-27T06:45:07.671Z,2.8
2018-11-27T06:46:07.661Z,2.85
2018-11-27T06:47:07.415Z,2.85
2018-11-27T06:48:07.669Z,2.69
2018-11-27T06:49:07.652Z,2.75
2018-11-27T06:50:07.647Z,2.77
2018-11-27T06:51:07.648Z,2.74
2018-11-27T06:52:07.643Z,2.69
2018-11-27T06:53:07.645Z,2.74
2018-11-27T06:54:07.394Z,2.79
2018-11-27T06:55:07.627Z,2.85
2018-11-27T06:56:07.668Z,2.82
2018-11-27T06:57:07.615Z,2.82
2018-11-27T06:58:07.609Z,2.8
2018-11-27T06:59:07.613Z,2.9
2018-11-27T07:00:07.362Z,2.85
2018-11-27T07:01:07.597Z,2.87
2018-11-27T07:02:07.591Z,2.9
2018-11-27T07:03:07.589Z,2.9
2018-11-27T07:04:07.588Z,2.93
2018-11-27T07:05:07.583Z,2.83
2018-11-27T07:06:07.337Z,2.92
2018-11-27T07:07:07.585Z,2.87
2018-11-27T07:08:07.575Z,2.86
2018-11-27T07:09:07.570Z,2.9
2018-11-27T07:10:07.572Z,2.93
2018-11-27T07:11:07.659Z,2.93
2018-11-27T07:12:07.560Z,2.92
2018-11-27T07:13:07.553Z,2.95
2018-11-27T07:14:07.554Z,3.01
2018-11-27T07:15:07.308Z,3
2018-11-27T07:16:07.559Z,2.95
2018-11-27T07:17:07.543Z,2.87
2018-11-27T07:18:07.541Z,2.93
2018-11-27T07:19:07.539Z,2.97
2018-11-27T07:20:07.541Z,3
2018-11-27T07:21:07.528Z,3.01
2018-11-27T07:22:07.542Z,2.97
2018-11-27T07:23:07.543Z,3.03
2018-11-27T07:24:07.513Z,3.01
2018-11-27T07:25:07.018Z,3.03
2018-11-27T07:26:07.656Z,3.01
2018-11-27T07:27:07.501Z,3
2018-11-27T07:28:07.501Z,3
2018-11-27T07:29:07.257Z,3.04
2018-11-27T07:30:07.499Z,2.97
2018-11-27T07:31:07.244Z,3.01
2018-11-27T07:32:11.901Z,3
2018-11-27T07:33:07.479Z,3.01
2018-11-27T07:34:07.477Z,3.01
2018-11-27T07:35:07.231Z,3.03
2018-11-27T07:36:08.209Z,3.07
2018-11-27T07:37:07.490Z,3.07
2018-11-27T07:38:07.469Z,3.13
2018-11-27T07:39:07.471Z,3.1
2018-11-27T07:40:07.902Z,3.16
2018-11-27T07:41:07.504Z,3.08
2018-11-27T07:42:07.204Z,3.18
2018-11-27T07:43:07.205Z,3.18
2018-11-27T07:44:07.448Z,3.08
2018-11-27T07:45:07.441Z,3.08
2018-11-27T07:46:07.535Z,3.1
2018-11-27T07:47:07.427Z,3.04
2018-11-27T07:48:07.186Z,3
2018-11-27T07:49:07.425Z,3.03
2018-11-27T07:50:07.419Z,3.04
2018-11-27T07:51:07.465Z,3.04
2018-11-27T07:52:06.930Z,3.01
2018-11-27T07:53:07.415Z,3.07
2018-11-27T07:54:07.406Z,3.13
2018-11-27T07:55:07.403Z,3.03
2018-11-27T07:56:07.450Z,3.11
2018-11-27T07:57:07.144Z,3.13
2018-11-27T07:58:07.390Z,3.16
2018-11-27T07:59:07.387Z,3.22
2018-11-27T08:00:07.387Z,3.19
2018-11-27T08:01:07.375Z,3.28
2018-11-27T08:02:07.371Z,3.26
2018-11-27T08:03:07.375Z,3.16
2018-11-27T08:04:07.372Z,3.31
2018-11-27T08:05:07.118Z,3.25
2018-11-27T08:06:07.412Z,3.18
2018-11-27T08:07:07.379Z,3.21
2018-11-27T08:08:07.368Z,3.14
2018-11-27T08:09:07.363Z,3.21
2018-11-27T08:10:07.346Z,3.01
2018-11-27T08:11:08.347Z,3.18
2018-11-27T08:12:07.346Z,3.1
2018-11-27T08:13:07.343Z,3.16
2018-11-27T08:14:07.334Z,3.13
2018-11-27T08:15:07.330Z,3.21
2018-11-27T08:16:07.329Z,3.19
2018-11-27T08:17:07.319Z,3.25
2018-11-27T08:18:07.077Z,3.18
2018-11-27T08:19:07.073Z,3.22
2018-11-27T08:20:07.309Z,3.05
2018-11-27T08:21:07.364Z,3.18
2018-11-27T08:22:07.304Z,3.18
2018-11-27T08:23:07.299Z,3.22
2018-11-27T08:24:07.302Z,3.14
2018-11-27T08:25:07.291Z,3.14
2018-11-27T08:26:07.061Z,3.16
2018-11-27T08:27:07.305Z,3.1
2018-11-27T08:28:07.283Z,3.04
2018-11-27T08:29:07.287Z,3.14
2018-11-27T08:30:07.286Z,3.23
2018-11-27T08:31:07.275Z,3.25
2018-11-27T08:32:07.270Z,3.22
2018-11-27T08:33:07.274Z,3.22
2018-11-27T08:34:07.265Z,3.23
2018-11-27T08:35:07.261Z,3.23
2018-11-27T08:36:07.310Z,3.26
2018-11-27T08:37:07.268Z,3.32
2018-11-27T08:38:06.761Z,3.22
2018-11-27T08:39:07.247Z,3.32
2018-11-27T08:40:07.245Z,3.29
2018-11-27T08:41:07.237Z,3.32
2018-11-27T08:42:06.990Z,3.25
2018-11-27T08:43:07.232Z,3.26
2018-11-27T08:44:07.234Z,3.19
2018-11-27T08:45:07.224Z,3.22
2018-11-27T08:46:07.222Z,3.32
2018-11-27T08:47:07.226Z,3.29
2018-11-27T08:48:06.977Z,3.36
2018-11-27T08:49:07.210Z,3.34
2018-11-27T08:50:07.214Z,3.37
2018-11-27T08:51:07.251Z,3.34
2018-11-27T08:52:07.194Z,3.42
2018-11-27T08:53:07.192Z,3.48
2018-11-27T08:54:07.223Z,3.5
2018-11-27T08:55:07.192Z,3.44
2018-11-27T08:56:07.188Z,3.56
2018-11-27T08:57:06.940Z,3.51
2018-11-27T08:58:07.179Z,3.55
2018-11-27T08:59:07.180Z,3.58
2018-11-27T09:00:07.175Z,3.58
2018-11-27T09:01:07.171Z,3.63
2018-11-27T09:02:07.176Z,3.65
2018-11-27T09:03:07.168Z,3.62
2018-11-27T09:04:07.163Z,3.59
2018-11-27T09:05:07.201Z,3.56
2018-11-27T09:06:06.965Z,3.56
2018-11-27T09:07:07.152Z,3.62
2018-11-27T09:08:06.906Z,3.7
2018-11-27T09:09:07.157Z,3.6
2018-11-27T09:10:07.146Z,3.69
2018-11-27T09:11:07.156Z,3.65
2018-11-27T09:12:07.137Z,3.7
2018-11-27T09:13:07.137Z,3.83
2018-11-27T09:14:07.131Z,3.78
2018-11-27T09:15:06.884Z,3.77
2018-11-27T09:16:07.128Z,3.84
2018-11-27T09:17:07.124Z,3.88
2018-11-27T09:18:07.120Z,3.88
2018-11-27T09:19:07.118Z,3.94
2018-11-27T09:20:07.111Z,3.98
2018-11-27T09:21:07.166Z,4.06
2018-11-27T09:22:06.860Z,4.01
2018-11-27T09:23:06.862Z,4.04
2018-11-27T09:24:06.856Z,4.04
2018-11-27T09:25:07.101Z,3.99
2018-11-27T09:26:07.097Z,3.99
2018-11-27T09:27:07.090Z,3.96
2018-11-27T09:28:07.086Z,4.06
2018-11-27T09:29:07.094Z,4.02
2018-11-27T09:30:07.081Z,4.05
2018-11-27T09:31:07.178Z,4.06
2018-11-27T09:32:07.102Z,4.05
2018-11-27T09:33:07.081Z,4.13
2018-11-27T09:34:07.076Z,4.1
2018-11-27T09:35:07.074Z,4.06
2018-11-27T09:36:07.123Z,4.13
2018-11-27T09:37:07.066Z,4.16
2018-11-27T09:38:07.065Z,4.22
2018-11-27T09:39:06.820Z,4.08
2018-11-27T09:40:07.057Z,4.16
2018-11-27T09:41:07.054Z,4.1
2018-11-27T09:42:07.056Z,4.16
2018-11-27T09:43:06.815Z,4.17
2018-11-27T09:44:07.055Z,4.1
2018-11-27T09:45:07.061Z,4.06
2018-11-27T09:46:07.185Z,4.05
2018-11-27T09:47:07.038Z,4.12
2018-11-27T09:48:07.036Z,4.08
2018-11-27T09:49:07.028Z,4.12
2018-11-27T09:50:07.034Z,4.05
2018-11-27T09:51:07.085Z,4.05
2018-11-27T09:52:07.005Z,4.04
2018-11-27T09:53:07.009Z,4.06
2018-11-27T09:54:07.008Z,4.05
2018-11-27T09:55:07.012Z,3.95
2018-11-27T09:56:07.021Z,4.01
2018-11-27T09:57:06.767Z,4.02
2018-11-27T09:58:07.010Z,4.06
2018-11-27T09:59:07.006Z,4.14
2018-11-27T10:00:06.763Z,4.19
2018-11-27T10:01:07.002Z,4.23
2018-11-27T10:02:07.003Z,4.2
2018-11-27T10:03:06.998Z,4.2
2018-11-27T10:04:07.002Z,4.24
2018-11-27T10:05:06.994Z,4.2
2018-11-27T10:06:07.041Z,4.19
2018-11-27T10:07:07.251Z,4.16
2018-11-27T10:08:06.997Z,4.22
2018-11-27T10:09:07.019Z,4.19
2018-11-27T10:10:06.981Z,4.23
2018-11-27T10:11:06.990Z,4.04
2018-11-27T10:12:06.976Z,4.12
2018-11-27T10:13:06.973Z,4.08
2018-11-27T10:14:06.483Z,4.06
2018-11-27T10:15:06.963Z,4.08
2018-11-27T10:16:07.027Z,4.08
2018-11-27T10:17:06.963Z,4.1
2018-11-27T10:18:06.954Z,4.08
2018-11-27T10:19:06.714Z,3.99
2018-11-27T10:20:06.959Z,4.01
2018-11-27T10:21:06.999Z,3.98
2018-11-27T10:22:06.944Z,4.05
2018-11-27T10:23:06.701Z,3.99
2018-11-27T10:24:07.966Z,3.99
2018-11-27T10:25:06.941Z,3.98
2018-11-27T10:26:06.946Z,4.02
2018-11-27T10:27:07.005Z,4.05
2018-11-27T10:28:06.935Z,4.04
2018-11-27T10:29:06.925Z,3.99
2018-11-27T10:30:06.927Z,4.13
2018-11-27T10:31:07.028Z,4.14
2018-11-27T10:32:06.920Z,4.16
2018-11-27T10:33:06.939Z,4.14
2018-11-27T10:34:06.924Z,4.12
2018-11-27T10:35:06.914Z,4.14
2018-11-27T10:36:06.954Z,4.19
2018-11-27T10:37:06.657Z,4.14
2018-11-27T10:38:06.654Z,4.17
2018-11-27T10:39:06.663Z,4.28
2018-11-27T10:40:06.655Z,4.31
2018-11-27T10:41:06.901Z,4.35
2018-11-27T10:42:06.673Z,4.42
2018-11-27T10:43:06.889Z,4.45
2018-11-27T10:44:06.647Z,4.38
2018-11-27T10:45:06.890Z,4.53
2018-11-27T10:46:06.886Z,4.62
2018-11-27T10:47:06.884Z,4.6
2018-11-27T10:48:06.878Z,4.6
2018-11-27T10:49:06.893Z,4.62
2018-11-27T10:50:06.899Z,4.66
2018-11-27T10:51:06.926Z,4.66
2018-11-27T10:52:06.874Z,4.66
2018-11-27T10:53:06.871Z,4.7
2018-11-27T10:54:06.868Z,4.73
2018-11-27T10:55:06.863Z,4.71
2018-11-27T10:56:06.908Z,4.68
2018-11-27T10:57:06.856Z,4.73
2018-11-27T10:58:06.615Z,4.74
2018-11-27T10:59:06.855Z,4.7
2018-11-27T11:00:06.860Z,4.77
2018-11-27T11:01:06.853Z,4.77
2018-11-27T11:02:06.609Z,4.71
2018-11-27T11:03:06.864Z,4.74
2018-11-27T11:04:06.593Z,4.67
2018-11-27T11:05:06.845Z,4.66
2018-11-27T11:06:06.847Z,4.56
2018-11-27T11:07:06.834Z,4.6
2018-11-27T11:08:06.831Z,4.63
2018-11-27T11:09:06.583Z,4.74
2018-11-27T11:10:06.823Z,4.74
2018-11-27T11:11:06.883Z,4.78
2018-11-27T11:12:06.836Z,4.71
2018-11-27T11:13:06.826Z,4.8
2018-11-27T11:14:06.820Z,4.8
2018-11-27T11:15:06.820Z,4.77
2018-11-27T11:16:06.870Z,4.74
2018-11-27T11:17:06.816Z,4.74
2018-11-27T11:18:06.562Z,4.74
2018-11-27T11:19:06.811Z,4.8
2018-11-27T11:20:07.817Z,4.82
2018-11-27T11:21:07.056Z,4.74
2018-11-27T11:22:06.806Z,4.86
2018-11-27T11:23:06.799Z,4.86
2018-11-27T11:24:06.792Z,4.78
2018-11-27T11:25:06.860Z,4.75
2018-11-27T11:26:06.794Z,4.87
2018-11-27T11:27:06.540Z,4.82
2018-11-27T11:28:06.782Z,4.8
2018-11-27T11:29:06.785Z,4.77
2018-11-27T11:30:06.818Z,4.86
2018-11-27T11:31:06.825Z,4.75
2018-11-27T11:32:06.781Z,4.75
2018-11-27T11:33:06.792Z,4.82
2018-11-27T11:34:06.777Z,4.84
2018-11-27T11:35:06.812Z,4.86
2018-11-27T11:36:06.575Z,4.93
2018-11-27T11:37:06.766Z,4.84
2018-11-27T11:38:06.765Z,4.68
2018-11-27T11:39:06.763Z,4.7
2018-11-27T11:40:06.761Z,4.77
2018-11-27T11:41:06.525Z,4.74
2018-11-27T11:42:06.506Z,4.89
2018-11-27T11:43:06.809Z,4.9
2018-11-27T11:44:06.755Z,4.93
2018-11-27T11:45:06.744Z,4.93
2018-11-27T11:46:06.598Z,4.96
2018-11-27T11:47:06.496Z,4.94
2018-11-27T11:48:06.745Z,5
2018-11-27T11:49:06.762Z,4.8
2018-11-27T11:50:06.731Z,4.8
2018-11-27T11:51:06.776Z,4.77
2018-11-27T11:52:06.723Z,4.71
2018-11-27T11:53:06.732Z,4.71
2018-11-27T11:54:06.724Z,4.74
2018-11-27T11:55:06.732Z,4.84
2018-11-27T11:56:06.530Z,4.75
2018-11-27T11:57:06.477Z,4.73
2018-11-27T11:58:06.720Z,4.7
2018-11-27T11:59:06.717Z,4.68
2018-11-27T12:00:06.716Z,4.84
2018-11-27T12:01:06.713Z,4.89
2018-11-27T12:02:06.709Z,4.71
2018-11-27T12:03:06.716Z,4.74
2018-11-27T12:04:06.728Z,4.77
2018-11-27T12:05:06.706Z,4.71
2018-11-27T12:06:06.700Z,4.71
2018-11-27T12:07:06.703Z,4.82
2018-11-27T12:08:06.696Z,4.84
2018-11-27T12:09:06.453Z,4.73
2018-11-27T12:10:06.715Z,4.84
2018-11-27T12:11:06.742Z,4.82
2018-11-27T12:12:06.684Z,4.77
2018-11-27T12:13:06.452Z,4.71
2018-11-27T12:14:06.689Z,4.68
2018-11-27T12:15:06.677Z,4.67
2018-11-27T12:16:06.689Z,4.71
2018-11-27T12:17:06.434Z,4.71
2018-11-27T12:18:06.447Z,4.71
2018-11-27T12:19:06.675Z,4.68
2018-11-27T12:20:06.687Z,4.74
2018-11-27T12:21:06.674Z,4.77
2018-11-27T12:22:06.667Z,4.71
2018-11-27T12:23:06.666Z,4.7
2018-11-27T12:24:06.660Z,4.75
2018-11-27T12:25:06.659Z,4.68
2018-11-27T12:26:06.713Z,4.75
2018-11-27T12:27:06.660Z,4.71
2018-11-27T12:28:06.652Z,4.73
2018-11-27T12:29:06.657Z,4.74
2018-11-27T12:30:06.222Z,4.8
2018-11-27T12:31:06.786Z,4.82
2018-11-27T12:32:06.651Z,4.75
2018-11-27T12:33:06.412Z,4.77
2018-11-27T12:34:06.640Z,4.7
2018-11-27T12:35:06.646Z,4.8
2018-11-27T12:36:06.640Z,4.75
2018-11-27T12:37:06.629Z,4.7
2018-11-27T12:38:06.639Z,4.74
2018-11-27T12:39:06.385Z,4.7
2018-11-27T12:40:06.640Z,4.77
2018-11-27T12:41:10.161Z,4.82
2018-11-27T12:42:06.622Z,4.7
2018-11-27T12:43:06.376Z,4.78
2018-11-27T12:44:06.624Z,4.82
2018-11-27T12:45:06.641Z,4.78
2018-11-27T12:46:06.736Z,4.75
2018-11-27T12:47:06.614Z,4.59
2018-11-27T12:48:06.608Z,4.59
2018-11-27T12:49:06.611Z,4.6
2018-11-27T12:50:06.356Z,4.52
2018-11-27T12:51:06.671Z,4.53
2018-11-27T12:52:06.592Z,4.53
2018-11-27T12:53:06.428Z,4.56
2018-11-27T12:54:06.596Z,4.58
2018-11-27T12:55:06.594Z,4.58
2018-11-27T12:56:06.638Z,4.71
2018-11-27T12:57:06.585Z,4.67
2018-11-27T12:58:06.346Z,4.62
2018-11-27T12:59:06.582Z,4.56
2018-11-27T13:00:06.598Z,4.58
2018-11-27T13:01:11.851Z,4.66
2018-11-27T13:02:06.578Z,4.66
2018-11-27T13:03:06.329Z,4.48
2018-11-27T13:04:06.324Z,4.48
2018-11-27T13:05:06.567Z,4.59
2018-11-27T13:06:06.571Z,4.62
2018-11-27T13:07:06.562Z,4.59
2018-11-27T13:08:06.554Z,4.59
2018-11-27T13:09:06.570Z,4.62
2018-11-27T13:10:07.457Z,4.63
2018-11-27T13:11:11.354Z,4.63
2018-11-27T13:12:06.548Z,4.58
2018-11-27T13:13:06.309Z,4.55
2018-11-27T13:14:06.567Z,4.53
2018-11-27T13:15:06.544Z,4.6
2018-11-27T13:16:06.546Z,4.6
2018-11-27T13:17:06.538Z,4.68
2018-11-27T13:18:06.538Z,4.67
2018-11-27T13:19:06.533Z,4.71
2018-11-27T13:20:06.040Z,4.7
2018-11-27T13:21:06.337Z,4.62